sensor_id;sensor_type;location;lat;lon;timestamp;temperature;humidity
7936;DHT22;4013;49.744;8.118;2023-08-17T04:47:38;18.40;99.90
7936;DHT22;4013;49.744;8.118;2023-08-17T04:50:06;18.50;99.90
7936;DHT22;4013;49.744;8.118;2023-08-17T04:52:33;18.50;99.90
7936;DHT22;4013;49.744;8.118;2023-08-17T04:55:00;18.50;99.90
7936;DHT22;4013;49.744;8.118;2023-08-17T04:57:27;18.40;99.90
7936;DHT22;4013;49.744;8.118;2023-08-17T04:59:54;18.40;99.90
7936;DHT22;4013;49.744;8.118;2023-08-17T05:02:21;18.40;99.90
7936;DHT22;4013;49.744;8.118;2023-08-17T05:04:49;18.50;99.90
7936;DHT22;4013;49.744;8.118;2023-08-17T05:07:16;18.50;99.90
7936;DHT22;4013;49.744;8.118;2023-08-17T05:09:43;18.60;99.90
7936;DHT22;4013;49.744;8.118;2023-08-17T05:12:10;18.50;99.90
7936;DHT22;4013;49.744;8.118;2023-08-17T05:14:37;18.60;99.90
7936;DHT22;4013;49.744;8.118;2023-08-17T05:17:04;18.60;99.90
7936;DHT22;4013;49.744;8.118;2023-08-17T05:19:31;18.50;99.90
7936;DHT22;4013;49.744;8.118;2023-08-17T05:21:59;18.50;99.90
7936;DHT22;4013;49.744;8.118;2023-08-17T05:24:26;18.50;99.90
7936;DHT22;4013;49.744;8.118;2023-08-17T05:26:54;18.50;99.90
7936;DHT22;4013;49.744;8.118;2023-08-17T05:29:21;18.50;99.90
7936;DHT22;4013;49.744;8.118;2023-08-17T05:31:48;18.60;99.90
7936;DHT22;4013;49.744;8.118;2023-08-17T05:34:15;18.60;99.90
7936;DHT22;4013;49.744;8.118;2023-08-17T05:36:42;18.70;99.90
7936;DHT22;4013;49.744;8.118;2023-08-17T05:39:10;18.70;99.90
7936;DHT22;4013;49.744;8.118;2023-08-17T05:41:37;18.80;99.90
7936;DHT22;4013;49.744;8.118;2023-08-17T05:44:04;18.70;99.90
7936;DHT22;4013;49.744;8.118;2023-08-17T05:46:32;18.80;99.90
7936;DHT22;4013;49.744;8.118;2023-08-17T05:49:00;18.80;99.90
7936;DHT22;4013;49.744;8.118;2023-08-17T05:51:27;18.80;99.90
7936;DHT22;4013;49.744;8.118;2023-08-17T05:53:54;18.80;99.90
7936;DHT22;4013;49.744;8.118;2023-08-17T05:56:23;18.80;99.90
7936;DHT22;4013;49.744;8.118;2023-08-17T05:58:50;18.80;99.90
7936;DHT22;4013;49.744;8.118;2023-08-17T06:01:16;18.90;99.90
7936;DHT22;4013;49.744;8.118;2023-08-17T06:03:43;18.90;99.90
7936;DHT22;4013;49.744;8.118;2023-08-17T06:06:11;18.90;99.90
7936;DHT22;4013;49.744;8.118;2023-08-17T06:08:38;18.90;99.90
7936;DHT22;4013;49.744;8.118;2023-08-17T06:11:05;19.00;99.90
7936;DHT22;4013;49.744;8.118;2023-08-17T06:13:33;19.00;99.90
7936;DHT22;4013;49.744;8.118;2023-08-17T06:16:01;19.00;99.90
7936;DHT22;4013;49.744;8.118;2023-08-17T06:18:28;19.00;99.90
7936;DHT22;4013;49.744;8.118;2023-08-17T06:20:55;19.10;99.90
7936;DHT22;4013;49.744;8.118;2023-08-17T06:23:23;19.10;99.90
7936;DHT22;4013;49.744;8.118;2023-08-17T06:25:50;19.10;99.90
7936;DHT22;4013;49.744;8.118;2023-08-17T06:28:17;19.20;99.90
7936;DHT22;4013;49.744;8.118;2023-08-17T06:30:45;19.20;99.90
7936;DHT22;4013;49.744;8.118;2023-08-17T06:33:12;19.20;99.90
7936;DHT22;4013;49.744;8.118;2023-08-17T06:35:40;19.20;99.90
7936;DHT22;4013;49.744;8.118;2023-08-17T06:38:07;19.10;99.90
7936;DHT22;4013;49.744;8.118;2023-08-17T06:40:34;19.20;99.90
7936;DHT22;4013;49.744;8.118;2023-08-17T06:43:01;19.20;99.90
7936;DHT22;4013;49.744;8.118;2023-08-17T06:45:28;19.10;99.90
7936;DHT22;4013;49.744;8.118;2023-08-17T06:47:56;19.10;99.90
7936;DHT22;4013;49.744;8.118;2023-08-17T06:50:23;19.20;99.90
7936;DHT22;4013;49.744;8.118;2023-08-17T06:52:50;19.20;99.90
7936;DHT22;4013;49.744;8.118;2023-08-17T06:55:17;19.10;99.90
7936;DHT22;4013;49.744;8.118;2023-08-17T06:57:44;19.20;99.90
7936;DHT22;4013;49.744;8.118;2023-08-17T07:00:12;19.20;99.90
7936;DHT22;4013;49.744;8.118;2023-08-17T07:02:39;19.30;99.90
7936;DHT22;4013;49.744;8.118;2023-08-17T07:05:08;19.30;99.90
7936;DHT22;4013;49.744;8.118;2023-08-17T07:07:36;19.30;99.90
7936;DHT22;4013;49.744;8.118;2023-08-17T07:10:05;19.30;99.90
7936;DHT22;4013;49.744;8.118;2023-08-17T07:12:32;19.20;99.90
7936;DHT22;4013;49.744;8.118;2023-08-17T07:14:59;19.20;99.90
7936;DHT22;4013;49.744;8.118;2023-08-17T07:17:26;19.20;99.90
7936;DHT22;4013;49.744;8.118;2023-08-17T07:19:53;19.20;99.90
7936;DHT22;4013;49.744;8.118;2023-08-17T07:22:22;19.20;99.90
7936;DHT22;4013;49.744;8.118;2023-08-17T07:24:49;19.20;99.90
7936;DHT22;4013;49.744;8.118;2023-08-17T07:27:16;19.30;99.90
7936;DHT22;4013;49.744;8.118;2023-08-17T07:29:43;19.30;99.90
7936;DHT22;4013;49.744;8.118;2023-08-17T07:32:10;19.30;99.90
7936;DHT22;4013;49.744;8.118;2023-08-17T07:34:37;19.40;99.90
7936;DHT22;4013;49.744;8.118;2023-08-17T07:37:04;19.40;99.90
7936;DHT22;4013;49.744;8.118;2023-08-17T07:39:33;19.40;99.90
7936;DHT22;4013;49.744;8.118;2023-08-17T07:42:00;19.50;99.90
7936;DHT22;4013;49.744;8.118;2023-08-17T07:44:27;19.50;99.90
7936;DHT22;4013;49.744;8.118;2023-08-17T07:46:57;19.40;99.90
7936;DHT22;4013;49.744;8.118;2023-08-17T07:49:24;19.50;99.90
7936;DHT22;4013;49.744;8.118;2023-08-17T07:51:51;19.50;99.90
7936;DHT22;4013;49.744;8.118;2023-08-17T07:54:18;19.40;99.90
7936;DHT22;4013;49.744;8.118;2023-08-17T07:56:47;19.40;99.90
7936;DHT22;4013;49.744;8.118;2023-08-17T07:59:14;19.40;99.90
7936;DHT22;4013;49.744;8.118;2023-08-17T08:01:41;19.50;99.90
7936;DHT22;4013;49.744;8.118;2023-08-17T08:04:08;19.40;99.90
7936;DHT22;4013;49.744;8.118;2023-08-17T08:06:35;19.50;99.90
7936;DHT22;4013;49.744;8.118;2023-08-17T08:09:02;19.50;99.90
7936;DHT22;4013;49.744;8.118;2023-08-17T08:11:29;19.60;99.90
7936;DHT22;4013;49.744;8.118;2023-08-17T08:13:58;19.60;99.90
7936;DHT22;4013;49.744;8.118;2023-08-17T08:16:26;19.60;99.90
7936;DHT22;4013;49.744;8.118;2023-08-17T08:18:53;19.60;99.90
7936;DHT22;4013;49.744;8.118;2023-08-17T08:21:20;19.60;99.90
7936;DHT22;4013;49.744;8.118;2023-08-17T08:23:47;19.50;99.90
7936;DHT22;4013;49.744;8.118;2023-08-17T08:26:14;19.60;99.90
7936;DHT22;4013;49.744;8.118;2023-08-17T08:28:41;19.70;99.90
7936;DHT22;4013;49.744;8.118;2023-08-17T08:31:09;19.70;99.90
7936;DHT22;4013;49.744;8.118;2023-08-17T08:33:36;19.70;99.90
7936;DHT22;4013;49.744;8.118;2023-08-17T08:36:03;19.80;99.90
7936;DHT22;4013;49.744;8.118;2023-08-17T08:38:31;19.80;99.90
7936;DHT22;4013;49.744;8.118;2023-08-17T08:40:59;19.80;99.90
7936;DHT22;4013;49.744;8.118;2023-08-17T08:43:26;19.90;99.90
7936;DHT22;4013;49.744;8.118;2023-08-17T08:45:54;19.80;99.90
7936;DHT22;4013;49.744;8.118;2023-08-17T08:48:23;19.90;99.90
7936;DHT22;4013;49.744;8.118;2023-08-17T08:50:55;20.00;99.90
7936;DHT22;4013;49.744;8.118;2023-08-17T08:53:27;20.10;99.90
7936;DHT22;4013;49.744;8.118;2023-08-17T08:55:58;20.00;99.90
7936;DHT22;4013;49.744;8.118;2023-08-17T08:58:26;20.00;99.90
7936;DHT22;4013;49.744;8.118;2023-08-17T09:00:54;20.00;99.90
7936;DHT22;4013;49.744;8.118;2023-08-17T09:03:25;20.00;99.90
7936;DHT22;4013;49.744;8.118;2023-08-17T09:05:53;20.00;99.90
7936;DHT22;4013;49.744;8.118;2023-08-17T09:08:24;20.10;99.90
7936;DHT22;4013;49.744;8.118;2023-08-17T09:10:52;20.20;99.90
7936;DHT22;4013;49.744;8.118;2023-08-17T09:13:19;20.30;99.90
7936;DHT22;4013;49.744;8.118;2023-08-17T09:15:46;20.30;99.90
7936;DHT22;4013;49.744;8.118;2023-08-17T09:18:13;20.40;99.90
7936;DHT22;4013;49.744;8.118;2023-08-17T09:20:42;20.40;99.90
7936;DHT22;4013;49.744;8.118;2023-08-17T09:23:11;20.50;99.90
7936;DHT22;4013;49.744;8.118;2023-08-17T09:25:40;20.60;99.90
7936;DHT22;4013;49.744;8.118;2023-08-17T09:28:08;20.60;99.90
7936;DHT22;4013;49.744;8.118;2023-08-17T09:30:54;20.60;99.90
7936;DHT22;4013;49.744;8.118;2023-08-17T09:33:22;20.60;99.90
7936;DHT22;4013;49.744;8.118;2023-08-17T09:35:51;20.70;99.90
7936;DHT22;4013;49.744;8.118;2023-08-17T09:38:18;20.80;99.90
7936;DHT22;4013;49.744;8.118;2023-08-17T09:40:45;20.80;99.90
7936;DHT22;4013;49.744;8.118;2023-08-17T09:43:14;20.80;99.90
7936;DHT22;4013;49.744;8.118;2023-08-17T09:45:43;20.80;99.90
7936;DHT22;4013;49.744;8.118;2023-08-17T09:48:14;20.80;99.90
7936;DHT22;4013;49.744;8.118;2023-08-17T09:50:43;20.90;99.90
7936;DHT22;4013;49.744;8.118;2023-08-17T09:53:14;21.00;99.90
7936;DHT22;4013;49.744;8.118;2023-08-17T09:55:42;21.00;99.90
7936;DHT22;4013;49.744;8.118;2023-08-17T09:58:09;21.10;99.90
7936;DHT22;4013;49.744;8.118;2023-08-17T10:00:43;21.10;99.90
7936;DHT22;4013;49.744;8.118;2023-08-17T10:03:13;21.00;99.90
7936;DHT22;4013;49.744;8.118;2023-08-17T10:05:44;20.90;99.90
7936;DHT22;4013;49.744;8.118;2023-08-17T10:08:19;20.90;99.90
7936;DHT22;4013;49.744;8.118;2023-08-17T10:10:47;21.00;99.90
7936;DHT22;4013;49.744;8.118;2023-08-17T10:13:18;20.90;99.90
7936;DHT22;4013;49.744;8.118;2023-08-17T10:15:53;20.70;99.90
7936;DHT22;4013;49.744;8.118;2023-08-17T10:18:27;20.80;99.90
7936;DHT22;4013;49.744;8.118;2023-08-17T10:21:00;20.90;99.90
7936;DHT22;4013;49.744;8.118;2023-08-17T10:23:32;20.80;99.90
7936;DHT22;4013;49.744;8.118;2023-08-17T10:26:00;20.90;99.90
7936;DHT22;4013;49.744;8.118;2023-08-17T10:28:30;20.90;99.90
7936;DHT22;4013;49.744;8.118;2023-08-17T10:30:58;21.00;99.90
7936;DHT22;4013;49.744;8.118;2023-08-17T10:33:26;20.90;99.90
7936;DHT22;4013;49.744;8.118;2023-08-17T10:35:54;20.90;99.90
7936;DHT22;4013;49.744;8.118;2023-08-17T10:38:21;21.10;99.90
7936;DHT22;4013;49.744;8.118;2023-08-17T10:41:08;21.30;99.90
7936;DHT22;4013;49.744;8.118;2023-08-17T10:43:40;21.20;99.90
7936;DHT22;4013;49.744;8.118;2023-08-17T10:46:19;21.40;99.90
7936;DHT22;4013;49.744;8.118;2023-08-17T10:48:46;21.50;99.90
7936;DHT22;4013;49.744;8.118;2023-08-17T10:51:13;21.60;99.90
7936;DHT22;4013;49.744;8.118;2023-08-17T10:53:43;21.70;99.90
7936;DHT22;4013;49.744;8.118;2023-08-17T10:56:16;21.90;99.90
7936;DHT22;4013;49.744;8.118;2023-08-17T10:58:44;22.00;99.90
7936;DHT22;4013;49.744;8.118;2023-08-17T11:01:11;22.00;99.90
7936;DHT22;4013;49.744;8.118;2023-08-17T11:03:41;22.10;99.90
7936;DHT22;4013;49.744;8.118;2023-08-17T11:06:16;22.20;99.90
7936;DHT22;4013;49.744;8.118;2023-08-17T11:08:54;22.40;99.90
7936;DHT22;4013;49.744;8.118;2023-08-17T11:11:23;22.30;99.90
7936;DHT22;4013;49.744;8.118;2023-08-17T11:13:53;22.50;99.90
7936;DHT22;4013;49.744;8.118;2023-08-17T11:16:20;22.60;99.90
7936;DHT22;4013;49.744;8.118;2023-08-17T11:18:48;22.50;99.90
7936;DHT22;4013;49.744;8.118;2023-08-17T11:21:15;22.50;99.90
7936;DHT22;4013;49.744;8.118;2023-08-17T11:23:43;22.60;99.90
7936;DHT22;4013;49.744;8.118;2023-08-17T11:26:10;22.70;99.90
7936;DHT22;4013;49.744;8.118;2023-08-17T11:28:38;22.90;99.90
7936;DHT22;4013;49.744;8.118;2023-08-17T11:31:08;23.00;99.90
7936;DHT22;4013;49.744;8.118;2023-08-17T11:33:35;23.10;99.90
7936;DHT22;4013;49.744;8.118;2023-08-17T11:36:05;23.10;99.90
7936;DHT22;4013;49.744;8.118;2023-08-17T11:38:32;23.20;99.90
7936;DHT22;4013;49.744;8.118;2023-08-17T11:41:00;23.30;99.90
7936;DHT22;4013;49.744;8.118;2023-08-17T11:43:29;23.30;99.90
7936;DHT22;4013;49.744;8.118;2023-08-17T11:45:57;23.40;99.90
7936;DHT22;4013;49.744;8.118;2023-08-17T11:48:24;23.30;99.90
7936;DHT22;4013;49.744;8.118;2023-08-17T11:50:52;23.20;99.90
7936;DHT22;4013;49.744;8.118;2023-08-17T11:53:19;23.00;99.90
7936;DHT22;4013;49.744;8.118;2023-08-17T11:55:46;23.00;99.90
7936;DHT22;4013;49.744;8.118;2023-08-17T11:58:14;23.20;99.90
7936;DHT22;4013;49.744;8.118;2023-08-17T12:00:42;23.40;99.90
7936;DHT22;4013;49.744;8.118;2023-08-17T12:03:13;23.70;99.90
7936;DHT22;4013;49.744;8.118;2023-08-17T12:05:40;23.90;99.90
7936;DHT22;4013;49.744;8.118;2023-08-17T12:08:08;23.80;99.90
7936;DHT22;4013;49.744;8.118;2023-08-17T12:10:37;24.00;99.90
7936;DHT22;4013;49.744;8.118;2023-08-17T12:13:04;24.10;99.90
7936;DHT22;4013;49.744;8.118;2023-08-17T12:15:32;24.10;99.90
7936;DHT22;4013;49.744;8.118;2023-08-17T12:18:01;24.20;99.90
7936;DHT22;4013;49.744;8.118;2023-08-17T12:20:31;24.00;99.90
7936;DHT22;4013;49.744;8.118;2023-08-17T12:23:02;23.80;99.90
7936;DHT22;4013;49.744;8.118;2023-08-17T12:25:29;23.80;99.90
7936;DHT22;4013;49.744;8.118;2023-08-17T12:27:58;23.70;99.90
7936;DHT22;4013;49.744;8.118;2023-08-17T12:30:27;23.60;99.90
7936;DHT22;4013;49.744;8.118;2023-08-17T12:32:55;23.60;99.90
7936;DHT22;4013;49.744;8.118;2023-08-17T12:35:22;23.50;99.90
7936;DHT22;4013;49.744;8.118;2023-08-17T12:37:52;23.40;99.90
7936;DHT22;4013;49.744;8.118;2023-08-17T12:40:19;23.30;99.90
7936;DHT22;4013;49.744;8.118;2023-08-17T12:42:46;23.30;99.90
7936;DHT22;4013;49.744;8.118;2023-08-17T12:45:14;23.30;99.90
7936;DHT22;4013;49.744;8.118;2023-08-17T12:47:41;23.30;99.90
7936;DHT22;4013;49.744;8.118;2023-08-17T12:50:08;23.40;99.90
7936;DHT22;4013;49.744;8.118;2023-08-17T12:52:36;23.40;99.90
7936;DHT22;4013;49.744;8.118;2023-08-17T12:55:05;23.50;99.90
7936;DHT22;4013;49.744;8.118;2023-08-17T12:57:32;23.50;99.90
7936;DHT22;4013;49.744;8.118;2023-08-17T12:59:58;23.50;99.90
7936;DHT22;4013;49.744;8.118;2023-08-17T13:02:25;23.50;99.90
7936;DHT22;4013;49.744;8.118;2023-08-17T13:04:52;23.60;99.90
7936;DHT22;4013;49.744;8.118;2023-08-17T13:07:19;23.60;99.90
7936;DHT22;4013;49.744;8.118;2023-08-17T13:09:46;23.60;99.90
7936;DHT22;4013;49.744;8.118;2023-08-17T13:12:14;23.60;99.90
7936;DHT22;4013;49.744;8.118;2023-08-17T13:14:41;23.70;99.90
7936;DHT22;4013;49.744;8.118;2023-08-17T13:17:08;23.70;99.90
7936;DHT22;4013;49.744;8.118;2023-08-17T13:19:35;23.60;99.90
7936;DHT22;4013;49.744;8.118;2023-08-17T13:22:02;23.60;99.90
7936;DHT22;4013;49.744;8.118;2023-08-17T13:24:29;23.60;99.90
7936;DHT22;4013;49.744;8.118;2023-08-17T13:26:57;23.70;99.90
7936;DHT22;4013;49.744;8.118;2023-08-17T13:29:25;23.80;99.90
7936;DHT22;4013;49.744;8.118;2023-08-17T13:31:52;23.70;99.90
7936;DHT22;4013;49.744;8.118;2023-08-17T13:34:19;23.70;99.90
7936;DHT22;4013;49.744;8.118;2023-08-17T13:36:46;23.80;99.90
7936;DHT22;4013;49.744;8.118;2023-08-17T13:39:13;24.20;99.90
7936;DHT22;4013;49.744;8.118;2023-08-17T13:41:41;24.50;99.90
7936;DHT22;4013;49.744;8.118;2023-08-17T13:44:08;24.80;99.90
7936;DHT22;4013;49.744;8.118;2023-08-17T13:46:37;24.80;99.90
7936;DHT22;4013;49.744;8.118;2023-08-17T13:49:04;24.80;99.90
7936;DHT22;4013;49.744;8.118;2023-08-17T13:51:31;24.60;99.90
7936;DHT22;4013;49.744;8.118;2023-08-17T13:53:58;24.50;99.90
7936;DHT22;4013;49.744;8.118;2023-08-17T13:56:25;24.50;99.90
7936;DHT22;4013;49.744;8.118;2023-08-17T13:58:52;24.50;99.90
7936;DHT22;4013;49.744;8.118;2023-08-17T14:01:19;24.40;99.90
7936;DHT22;4013;49.744;8.118;2023-08-17T14:03:47;24.30;99.90
7936;DHT22;4013;49.744;8.118;2023-08-17T14:06:14;24.30;99.90
7936;DHT22;4013;49.744;8.118;2023-08-17T14:08:42;24.40;99.90
7936;DHT22;4013;49.744;8.118;2023-08-17T14:11:09;24.40;99.90
7936;DHT22;4013;49.744;8.118;2023-08-17T14:13:36;24.30;99.90
7936;DHT22;4013;49.744;8.118;2023-08-17T14:16:04;24.30;99.90
7936;DHT22;4013;49.744;8.118;2023-08-17T14:18:31;24.40;99.90
7936;DHT22;4013;49.744;8.118;2023-08-17T14:21:00;24.40;99.90
7936;DHT22;4013;49.744;8.118;2023-08-17T14:23:27;24.40;99.90
7936;DHT22;4013;49.744;8.118;2023-08-17T14:25:54;24.40;99.90
7936;DHT22;4013;49.744;8.118;2023-08-17T14:28:21;24.40;99.90
7936;DHT22;4013;49.744;8.118;2023-08-17T14:30:48;24.40;99.90
7936;DHT22;4013;49.744;8.118;2023-08-17T14:33:14;24.30;99.90
7936;DHT22;4013;49.744;8.118;2023-08-17T14:35:41;24.30;99.90
7936;DHT22;4013;49.744;8.118;2023-08-17T14:38:10;24.40;99.90
7936;DHT22;4013;49.744;8.118;2023-08-17T14:40:41;24.50;99.90
7936;DHT22;4013;49.744;8.118;2023-08-17T14:43:08;24.50;99.90
7936;DHT22;4013;49.744;8.118;2023-08-17T14:45:37;24.50;99.90
7936;DHT22;4013;49.744;8.118;2023-08-17T14:48:05;24.50;99.90
7936;DHT22;4013;49.744;8.118;2023-08-17T14:50:33;24.50;99.90
7936;DHT22;4013;49.744;8.118;2023-08-17T14:52:59;24.50;99.90
7936;DHT22;4013;49.744;8.118;2023-08-17T14:55:29;24.60;99.90
7936;DHT22;4013;49.744;8.118;2023-08-17T14:57:56;24.70;99.90
7936;DHT22;4013;49.744;8.118;2023-08-17T15:00:23;24.80;99.90
7936;DHT22;4013;49.744;8.118;2023-08-17T15:02:51;25.00;99.90
7936;DHT22;4013;49.744;8.118;2023-08-17T15:05:18;25.10;99.90
7936;DHT22;4013;49.744;8.118;2023-08-17T15:07:45;25.20;99.90
7936;DHT22;4013;49.744;8.118;2023-08-17T15:10:11;25.20;99.90
7936;DHT22;4013;49.744;8.118;2023-08-17T15:12:40;25.30;99.90
7936;DHT22;4013;49.744;8.118;2023-08-17T15:15:08;25.30;99.90
7936;DHT22;4013;49.744;8.118;2023-08-17T15:17:35;25.30;99.90
7936;DHT22;4013;49.744;8.118;2023-08-17T15:20:03;25.30;99.90
7936;DHT22;4013;49.744;8.118;2023-08-17T15:22:31;25.30;99.90
7936;DHT22;4013;49.744;8.118;2023-08-17T15:24:58;25.30;99.90
7936;DHT22;4013;49.744;8.118;2023-08-17T15:27:25;25.30;99.90
7936;DHT22;4013;49.744;8.118;2023-08-17T15:29:53;25.30;99.90
7936;DHT22;4013;49.744;8.118;2023-08-17T15:32:20;25.30;99.90
7936;DHT22;4013;49.744;8.118;2023-08-17T15:34:47;25.30;99.90
7936;DHT22;4013;49.744;8.118;2023-08-17T15:37:14;25.30;99.90
7936;DHT22;4013;49.744;8.118;2023-08-17T15:39:41;25.20;99.90
7936;DHT22;4013;49.744;8.118;2023-08-17T15:42:08;25.20;99.90
7936;DHT22;4013;49.744;8.118;2023-08-17T15:44:35;25.10;99.90
7936;DHT22;4013;49.744;8.118;2023-08-17T15:47:03;25.10;99.90
7936;DHT22;4013;49.744;8.118;2023-08-17T15:49:30;25.10;99.90
7936;DHT22;4013;49.744;8.118;2023-08-17T15:51:57;25.10;99.90
7936;DHT22;4013;49.744;8.118;2023-08-17T15:54:24;25.10;99.90
7936;DHT22;4013;49.744;8.118;2023-08-17T15:56:51;25.20;99.90
7936;DHT22;4013;49.744;8.118;2023-08-17T15:59:18;25.20;99.90
7936;DHT22;4013;49.744;8.118;2023-08-17T16:01:45;25.10;99.90
7936;DHT22;4013;49.744;8.118;2023-08-17T16:04:14;25.00;99.90
7936;DHT22;4013;49.744;8.118;2023-08-17T16:06:41;25.00;99.90
7936;DHT22;4013;49.744;8.118;2023-08-17T16:09:09;25.10;99.90
7936;DHT22;4013;49.744;8.118;2023-08-17T16:11:36;25.10;99.90
7936;DHT22;4013;49.744;8.118;2023-08-17T16:14:04;25.10;99.90
7936;DHT22;4013;49.744;8.118;2023-08-17T16:16:31;25.20;99.90
7936;DHT22;4013;49.744;8.118;2023-08-17T16:18:58;25.20;99.90
7936;DHT22;4013;49.744;8.118;2023-08-17T16:21:26;25.20;99.90
7936;DHT22;4013;49.744;8.118;2023-08-17T16:23:53;25.20;99.90
7936;DHT22;4013;49.744;8.118;2023-08-17T16:26:20;25.20;99.90
7936;DHT22;4013;49.744;8.118;2023-08-17T16:28:47;25.30;99.90
7936;DHT22;4013;49.744;8.118;2023-08-17T16:31:14;25.30;99.90
7936;DHT22;4013;49.744;8.118;2023-08-17T16:33:40;25.30;99.90
7936;DHT22;4013;49.744;8.118;2023-08-17T16:36:07;25.30;99.90
7936;DHT22;4013;49.744;8.118;2023-08-17T16:38:36;25.30;99.90
7936;DHT22;4013;49.744;8.118;2023-08-17T16:41:03;25.30;99.90
7936;DHT22;4013;49.744;8.118;2023-08-17T16:43:30;25.30;99.90
7936;DHT22;4013;49.744;8.118;2023-08-17T16:45:56;25.30;99.90
7936;DHT22;4013;49.744;8.118;2023-08-17T16:48:24;25.20;99.90
7936;DHT22;4013;49.744;8.118;2023-08-17T16:50:51;25.20;99.90
7936;DHT22;4013;49.744;8.118;2023-08-17T16:53:18;25.30;99.90
7936;DHT22;4013;49.744;8.118;2023-08-17T16:55:46;25.30;99.90
7936;DHT22;4013;49.744;8.118;2023-08-17T16:58:13;25.30;99.90
7936;DHT22;4013;49.744;8.118;2023-08-17T17:00:40;25.20;99.90
7936;DHT22;4013;49.744;8.118;2023-08-17T17:03:07;25.20;99.90
7936;DHT22;4013;49.744;8.118;2023-08-17T17:05:34;25.10;99.90
7936;DHT22;4013;49.744;8.118;2023-08-17T17:08:01;25.10;99.90
7936;DHT22;4013;49.744;8.118;2023-08-17T17:10:29;25.10;99.90
7936;DHT22;4013;49.744;8.118;2023-08-17T17:12:57;25.10;99.90
7936;DHT22;4013;49.744;8.118;2023-08-17T17:15:24;25.10;99.90
7936;DHT22;4013;49.744;8.118;2023-08-17T17:17:51;25.10;99.90
7936;DHT22;4013;49.744;8.118;2023-08-17T17:20:18;25.00;99.90
7936;DHT22;4013;49.744;8.118;2023-08-17T17:22:45;25.00;99.90
7936;DHT22;4013;49.744;8.118;2023-08-17T17:25:12;25.00;99.90
7936;DHT22;4013;49.744;8.118;2023-08-17T17:27:39;25.00;99.90
7936;DHT22;4013;49.744;8.118;2023-08-17T17:30:08;24.90;99.90
7936;DHT22;4013;49.744;8.118;2023-08-17T17:32:36;24.90;99.90
7936;DHT22;4013;49.744;8.118;2023-08-17T17:35:03;24.80;99.90
7936;DHT22;4013;49.744;8.118;2023-08-17T17:37:30;24.80;99.90
7936;DHT22;4013;49.744;8.118;2023-08-17T17:39:57;24.70;99.90
7936;DHT22;4013;49.744;8.118;2023-08-17T17:42:24;24.70;99.90
7936;DHT22;4013;49.744;8.118;2023-08-17T17:44:51;24.70;99.90
7936;DHT22;4013;49.744;8.118;2023-08-17T17:47:19;24.70;99.90
7936;DHT22;4013;49.744;8.118;2023-08-17T17:49:46;24.70;99.90
7936;DHT22;4013;49.744;8.118;2023-08-17T17:52:13;24.70;99.90
7936;DHT22;4013;49.744;8.118;2023-08-17T17:54:40;24.70;99.90
7936;DHT22;4013;49.744;8.118;2023-08-17T17:57:07;24.70;99.90
7936;DHT22;4013;49.744;8.118;2023-08-17T17:59:34;24.70;99.90
7936;DHT22;4013;49.744;8.118;2023-08-17T18:02:01;24.70;99.90
7936;DHT22;4013;49.744;8.118;2023-08-17T18:04:30;24.60;99.90
7936;DHT22;4013;49.744;8.118;2023-08-17T18:06:57;24.60;99.90
7936;DHT22;4013;49.744;8.118;2023-08-17T18:09:24;24.50;99.90
7936;DHT22;4013;49.744;8.118;2023-08-17T18:11:52;24.50;99.90
7936;DHT22;4013;49.744;8.118;2023-08-17T18:14:18;24.40;99.90
7936;DHT22;4013;49.744;8.118;2023-08-17T18:16:45;24.40;99.90
7936;DHT22;4013;49.744;8.118;2023-08-17T18:19:12;24.30;99.90
7936;DHT22;4013;49.744;8.118;2023-08-17T18:21:41;24.20;99.90
7936;DHT22;4013;49.744;8.118;2023-08-17T18:24:08;24.10;99.90
7936;DHT22;4013;49.744;8.118;2023-08-17T18:26:35;24.10;99.90
7936;DHT22;4013;49.744;8.118;2023-08-17T18:29:02;24.10;99.90
7936;DHT22;4013;49.744;8.118;2023-08-17T18:31:29;24.00;99.90
7936;DHT22;4013;49.744;8.118;2023-08-17T18:33:56;24.00;99.90
7936;DHT22;4013;49.744;8.118;2023-08-17T18:36:23;24.00;99.90
7936;DHT22;4013;49.744;8.118;2023-08-17T18:38:51;24.00;99.90
7936;DHT22;4013;49.744;8.118;2023-08-17T18:41:18;23.90;99.90
7936;DHT22;4013;49.744;8.118;2023-08-17T18:43:45;23.90;99.90
7936;DHT22;4013;49.744;8.118;2023-08-17T18:46:12;23.80;99.90
7936;DHT22;4013;49.744;8.118;2023-08-17T18:48:39;23.80;99.90
7936;DHT22;4013;49.744;8.118;2023-08-17T18:51:06;23.70;99.90
7936;DHT22;4013;49.744;8.118;2023-08-17T18:53:33;23.60;99.90
7936;DHT22;4013;49.744;8.118;2023-08-17T18:56:02;23.60;99.90
7936;DHT22;4013;49.744;8.118;2023-08-17T18:58:28;23.50;99.90
7936;DHT22;4013;49.744;8.118;2023-08-17T19:00:55;23.50;99.90
7936;DHT22;4013;49.744;8.118;2023-08-17T19:03:22;23.50;99.90
7936;DHT22;4013;49.744;8.118;2023-08-17T19:05:51;23.50;99.90
7936;DHT22;4013;49.744;8.118;2023-08-17T19:08:18;23.40;99.90
7936;DHT22;4013;49.744;8.118;2023-08-17T19:10:45;23.30;99.90
7936;DHT22;4013;49.744;8.118;2023-08-17T19:13:14;23.30;99.90
7936;DHT22;4013;49.744;8.118;2023-08-17T19:15:41;23.30;99.90
7936;DHT22;4013;49.744;8.118;2023-08-17T19:18:08;23.20;99.90
7936;DHT22;4013;49.744;8.118;2023-08-17T19:20:35;23.10;99.90
7936;DHT22;4013;49.744;8.118;2023-08-17T19:23:02;23.10;99.90
7936;DHT22;4013;49.744;8.118;2023-08-17T19:25:29;23.00;99.90
7936;DHT22;4013;49.744;8.118;2023-08-17T19:27:56;23.00;99.90
7936;DHT22;4013;49.744;8.118;2023-08-17T19:30:24;23.00;99.90
7936;DHT22;4013;49.744;8.118;2023-08-17T19:32:56;22.90;99.90
7936;DHT22;4013;49.744;8.118;2023-08-17T19:35:24;22.90;99.90
7936;DHT22;4013;49.744;8.118;2023-08-17T19:37:55;22.90;99.90
7936;DHT22;4013;49.744;8.118;2023-08-17T19:40:22;22.80;99.90
7936;DHT22;4013;49.744;8.118;2023-08-17T19:42:50;22.80;99.90
7936;DHT22;4013;49.744;8.118;2023-08-17T19:45:17;22.80;99.90
7936;DHT22;4013;49.744;8.118;2023-08-17T19:47:45;22.80;99.90
7936;DHT22;4013;49.744;8.118;2023-08-17T19:50:14;22.70;99.90
7936;DHT22;4013;49.744;8.118;2023-08-17T19:52:41;22.70;99.90
7936;DHT22;4013;49.744;8.118;2023-08-17T19:55:09;22.70;99.90
7936;DHT22;4013;49.744;8.118;2023-08-17T19:57:36;22.70;99.90
7936;DHT22;4013;49.744;8.118;2023-08-17T20:00:04;22.60;99.90
7936;DHT22;4013;49.744;8.118;2023-08-17T20:02:34;22.60;99.90
7936;DHT22;4013;49.744;8.118;2023-08-17T20:05:03;22.60;99.90
7936;DHT22;4013;49.744;8.118;2023-08-17T20:07:31;22.60;99.90
7936;DHT22;4013;49.744;8.118;2023-08-17T20:09:58;22.60;99.90
7936;DHT22;4013;49.744;8.118;2023-08-17T20:12:26;22.60;99.90
7936;DHT22;4013;49.744;8.118;2023-08-17T20:14:53;22.50;99.90
7936;DHT22;4013;49.744;8.118;2023-08-17T20:17:20;22.50;99.90
7936;DHT22;4013;49.744;8.118;2023-08-17T20:19:47;22.50;99.90
7936;DHT22;4013;49.744;8.118;2023-08-17T20:22:15;22.50;99.90
7936;DHT22;4013;49.744;8.118;2023-08-17T20:24:42;22.50;99.90
7936;DHT22;4013;49.744;8.118;2023-08-17T20:27:10;22.40;99.90
7936;DHT22;4013;49.744;8.118;2023-08-17T20:29:37;22.30;99.90
7936;DHT22;4013;49.744;8.118;2023-08-17T20:32:04;22.30;99.90
7936;DHT22;4013;49.744;8.118;2023-08-17T20:34:31;22.20;99.90
7936;DHT22;4013;49.744;8.118;2023-08-17T20:36:58;22.20;99.90
7936;DHT22;4013;49.744;8.118;2023-08-17T20:39:27;22.20;99.90
7936;DHT22;4013;49.744;8.118;2023-08-17T20:41:54;22.20;99.90
7936;DHT22;4013;49.744;8.118;2023-08-17T20:44:21;22.20;99.90
7936;DHT22;4013;49.744;8.118;2023-08-17T20:46:48;22.20;99.90
7936;DHT22;4013;49.744;8.118;2023-08-17T20:49:15;22.20;99.90
7936;DHT22;4013;49.744;8.118;2023-08-17T20:51:43;22.10;99.90